sensor_id;sensor_type;location;lat;lon;timestamp;temperature;humidity
14277;DHT22;7222;57.346;12.150;2023-05-21T00:01:56;8.70;17.50
14277;DHT22;7222;57.346;12.150;2023-05-21T00:04:24;8.60;21.30
14277;DHT22;7222;57.346;12.150;2023-05-21T00:06:53;8.60;28.40
14277;DHT22;7222;57.346;12.150;2023-05-21T00:09:20;8.60;56.90
14277;DHT22;7222;57.346;12.150;2023-05-21T00:11:47;8.50;71.60
14277;DHT22;7222;57.346;12.150;2023-05-21T00:14:14;8.50;51.20
14277;DHT22;7222;57.346;12.150;2023-05-21T00:16:42;8.40;99.50
14277;DHT22;7222;57.346;12.150;2023-05-21T00:19:09;8.40;78.30
14277;DHT22;7222;57.346;12.150;2023-05-21T00:21:36;8.40;66.60
14277;DHT22;7222;57.346;12.150;2023-05-21T00:24:04;8.40;99.90
14277;DHT22;7222;57.346;12.150;2023-05-21T00:26:31;8.30;96.00
14277;DHT22;7222;57.346;12.150;2023-05-21T00:28:58;8.20;99.90
14277;DHT22;7222;57.346;12.150;2023-05-21T00:31:25;8.20;99.90
14277;DHT22;7222;57.346;12.150;2023-05-21T00:33:53;8.20;99.90
14277;DHT22;7222;57.346;12.150;2023-05-21T00:36:20;8.20;99.90
14277;DHT22;7222;57.346;12.150;2023-05-21T00:38:48;8.10;99.90
14277;DHT22;7222;57.346;12.150;2023-05-21T00:41:15;8.10;99.90
14277;DHT22;7222;57.346;12.150;2023-05-21T00:43:42;8.10;99.90
14277;DHT22;7222;57.346;12.150;2023-05-21T00:46:12;8.10;99.90
14277;DHT22;7222;57.346;12.150;2023-05-21T00:48:41;8.00;99.90
14277;DHT22;7222;57.346;12.150;2023-05-21T00:51:09;8.00;99.90
14277;DHT22;7222;57.346;12.150;2023-05-21T00:53:36;8.00;99.90
14277;DHT22;7222;57.346;12.150;2023-05-21T00:56:04;7.90;99.90
14277;DHT22;7222;57.346;12.150;2023-05-21T00:58:32;7.90;99.90
14277;DHT22;7222;57.346;12.150;2023-05-21T01:00:59;7.90;99.90
14277;DHT22;7222;57.346;12.150;2023-05-21T01:03:28;7.90;99.90
14277;DHT22;7222;57.346;12.150;2023-05-21T01:05:55;7.90;99.90
14277;DHT22;7222;57.346;12.150;2023-05-21T01:08:26;7.80;99.90
14277;DHT22;7222;57.346;12.150;2023-05-21T01:10:54;7.80;99.90
14277;DHT22;7222;57.346;12.150;2023-05-21T01:13:21;7.80;99.90
14277;DHT22;7222;57.346;12.150;2023-05-21T01:15:49;7.80;99.90
14277;DHT22;7222;57.346;12.150;2023-05-21T01:18:16;7.80;99.90
14277;DHT22;7222;57.346;12.150;2023-05-21T01:20:44;7.70;99.90
14277;DHT22;7222;57.346;12.150;2023-05-21T01:23:14;7.80;99.90
14277;DHT22;7222;57.346;12.150;2023-05-21T01:25:41;7.70;99.90
14277;DHT22;7222;57.346;12.150;2023-05-21T01:28:08;7.70;99.90
14277;DHT22;7222;57.346;12.150;2023-05-21T01:30:37;7.70;99.90
14277;DHT22;7222;57.346;12.150;2023-05-21T01:33:09;7.60;1.00
14277;DHT22;7222;57.346;12.150;2023-05-21T01:35:43;7.60;1.00
14277;DHT22;7222;57.346;12.150;2023-05-21T01:38:20;7.60;1.00
14277;DHT22;7222;57.346;12.150;2023-05-21T01:40:52;7.60;1.00
14277;DHT22;7222;57.346;12.150;2023-05-21T01:43:24;7.60;1.00
14277;DHT22;7222;57.346;12.150;2023-05-21T01:45:54;7.60;1.00
14277;DHT22;7222;57.346;12.150;2023-05-21T01:48:21;7.60;99.90
14277;DHT22;7222;57.346;12.150;2023-05-21T01:50:51;7.50;99.90
14277;DHT22;7222;57.346;12.150;2023-05-21T01:53:21;7.40;99.90
14277;DHT22;7222;57.346;12.150;2023-05-21T01:55:48;7.40;99.90
14277;DHT22;7222;57.346;12.150;2023-05-21T01:58:15;7.40;99.90
14277;DHT22;7222;57.346;12.150;2023-05-21T02:00:43;7.40;99.90
14277;DHT22;7222;57.346;12.150;2023-05-21T02:03:11;7.40;99.90
14277;DHT22;7222;57.346;12.150;2023-05-21T02:05:39;7.40;99.90
14277;DHT22;7222;57.346;12.150;2023-05-21T02:08:05;7.40;99.90
14277;DHT22;7222;57.346;12.150;2023-05-21T02:10:34;7.40;99.90
14277;DHT22;7222;57.346;12.150;2023-05-21T02:13:01;7.30;99.90
14277;DHT22;7222;57.346;12.150;2023-05-21T02:15:28;7.30;99.90
14277;DHT22;7222;57.346;12.150;2023-05-21T02:17:59;7.40;99.90
14277;DHT22;7222;57.346;12.150;2023-05-21T02:20:26;7.40;99.90
14277;DHT22;7222;57.346;12.150;2023-05-21T02:22:53;7.30;99.90
14277;DHT22;7222;57.346;12.150;2023-05-21T02:25:20;7.30;99.90
14277;DHT22;7222;57.346;12.150;2023-05-21T02:27:48;7.30;99.90
14277;DHT22;7222;57.346;12.150;2023-05-21T02:30:18;7.30;1.00
14277;DHT22;7222;57.346;12.150;2023-05-21T02:32:46;7.30;99.90
14277;DHT22;7222;57.346;12.150;2023-05-21T02:35:14;7.30;1.00
14277;DHT22;7222;57.346;12.150;2023-05-21T02:37:41;7.30;1.00
14277;DHT22;7222;57.346;12.150;2023-05-21T02:40:09;7.30;99.90
14277;DHT22;7222;57.346;12.150;2023-05-21T02:42:36;7.30;95.40
14277;DHT22;7222;57.346;12.150;2023-05-21T02:45:07;7.20;1.00
14277;DHT22;7222;57.346;12.150;2023-05-21T02:47:34;7.20;1.00
14277;DHT22;7222;57.346;12.150;2023-05-21T02:50:01;7.20;99.90
14277;DHT22;7222;57.346;12.150;2023-05-21T02:52:27;7.10;99.90
14277;DHT22;7222;57.346;12.150;2023-05-21T02:54:54;7.20;99.90
14277;DHT22;7222;57.346;12.150;2023-05-21T02:57:21;7.20;99.90
14277;DHT22;7222;57.346;12.150;2023-05-21T02:59:48;7.20;99.90
14277;DHT22;7222;57.346;12.150;2023-05-21T03:02:17;7.10;1.00
14277;DHT22;7222;57.346;12.150;2023-05-21T03:04:44;7.10;1.00
14277;DHT22;7222;57.346;12.150;2023-05-21T03:07:11;7.20;99.90
14277;DHT22;7222;57.346;12.150;2023-05-21T03:09:39;7.60;99.90
14277;DHT22;7222;57.346;12.150;2023-05-21T03:12:07;7.70;99.90
14277;DHT22;7222;57.346;12.150;2023-05-21T03:14:34;7.80;1.00
14277;DHT22;7222;57.346;12.150;2023-05-21T03:17:01;7.80;99.90
14277;DHT22;7222;57.346;12.150;2023-05-21T03:19:31;7.70;1.00
14277;DHT22;7222;57.346;12.150;2023-05-21T03:22:00;7.60;1.00
14277;DHT22;7222;57.346;12.150;2023-05-21T03:24:27;7.70;99.90
14277;DHT22;7222;57.346;12.150;2023-05-21T03:26:54;7.70;99.90
14277;DHT22;7222;57.346;12.150;2023-05-21T03:29:21;7.70;99.90
14277;DHT22;7222;57.346;12.150;2023-05-21T03:31:48;7.70;99.90
14277;DHT22;7222;57.346;12.150;2023-05-21T03:34:16;7.60;9.20
14277;DHT22;7222;57.346;12.150;2023-05-21T03:36:45;7.80;99.90
14277;DHT22;7222;57.346;12.150;2023-05-21T03:39:12;8.00;99.90
14277;DHT22;7222;57.346;12.150;2023-05-21T03:41:39;8.00;99.90
14277;DHT22;7222;57.346;12.150;2023-05-21T03:44:06;7.90;99.90
14277;DHT22;7222;57.346;12.150;2023-05-21T03:46:33;8.00;99.90
14277;DHT22;7222;57.346;12.150;2023-05-21T03:49:00;7.90;99.90
14277;DHT22;7222;57.346;12.150;2023-05-21T03:51:27;7.90;99.90
14277;DHT22;7222;57.346;12.150;2023-05-21T03:53:58;7.90;1.00
14277;DHT22;7222;57.346;12.150;2023-05-21T03:56:25;8.00;55.40
14277;DHT22;7222;57.346;12.150;2023-05-21T03:58:53;7.90;1.00
14277;DHT22;7222;57.346;12.150;2023-05-21T04:01:20;7.90;1.00
14277;DHT22;7222;57.346;12.150;2023-05-21T04:03:47;7.90;1.00
14277;DHT22;7222;57.346;12.150;2023-05-21T04:06:15;7.90;99.90
14277;DHT22;7222;57.346;12.150;2023-05-21T04:08:42;8.00;47.40
14277;DHT22;7222;57.346;12.150;2023-05-21T04:11:10;8.10;99.90
14277;DHT22;7222;57.346;12.150;2023-05-21T04:13:37;8.00;1.00
14277;DHT22;7222;57.346;12.150;2023-05-21T04:16:04;8.10;1.00
14277;DHT22;7222;57.346;12.150;2023-05-21T04:18:33;8.10;99.90
14277;DHT22;7222;57.346;12.150;2023-05-21T04:21:00;8.30;99.90
14277;DHT22;7222;57.346;12.150;2023-05-21T04:23:27;8.20;99.90
14277;DHT22;7222;57.346;12.150;2023-05-21T04:25:54;8.20;1.00
14277;DHT22;7222;57.346;12.150;2023-05-21T04:28:22;8.40;1.00
14277;DHT22;7222;57.346;12.150;2023-05-21T04:30:53;8.50;99.90
14277;DHT22;7222;57.346;12.150;2023-05-21T04:33:20;8.50;99.90
14277;DHT22;7222;57.346;12.150;2023-05-21T04:35:50;8.60;84.60
14277;DHT22;7222;57.346;12.150;2023-05-21T04:38:17;8.60;99.90
14277;DHT22;7222;57.346;12.150;2023-05-21T04:40:45;8.80;99.90
14277;DHT22;7222;57.346;12.150;2023-05-21T04:43:15;8.90;99.90
14277;DHT22;7222;57.346;12.150;2023-05-21T04:45:43;9.10;1.00
14277;DHT22;7222;57.346;12.150;2023-05-21T04:48:11;9.20;1.00
14277;DHT22;7222;57.346;12.150;2023-05-21T04:50:40;9.30;99.90
14277;DHT22;7222;57.346;12.150;2023-05-21T04:53:06;9.40;1.00
14277;DHT22;7222;57.346;12.150;2023-05-21T04:55:34;9.40;1.00
14277;DHT22;7222;57.346;12.150;2023-05-21T04:58:04;9.60;99.90
14277;DHT22;7222;57.346;12.150;2023-05-21T05:00:31;9.80;99.90
14277;DHT22;7222;57.346;12.150;2023-05-21T05:02:59;9.80;1.00
14277;DHT22;7222;57.346;12.150;2023-05-21T05:05:26;10.00;55.50
14277;DHT22;7222;57.346;12.150;2023-05-21T05:07:53;10.10;1.00
14277;DHT22;7222;57.346;12.150;2023-05-21T05:10:20;10.10;1.00
14277;DHT22;7222;57.346;12.150;2023-05-21T05:12:47;10.10;1.00
14277;DHT22;7222;57.346;12.150;2023-05-21T05:15:14;10.20;93.20
14277;DHT22;7222;57.346;12.150;2023-05-21T05:17:41;10.30;1.00
14277;DHT22;7222;57.346;12.150;2023-05-21T05:20:10;10.30;64.10
14277;DHT22;7222;57.346;12.150;2023-05-21T05:22:38;10.20;1.00
14277;DHT22;7222;57.346;12.150;2023-05-21T05:25:05;10.30;1.00
14277;DHT22;7222;57.346;12.150;2023-05-21T05:27:33;10.30;99.90
14277;DHT22;7222;57.346;12.150;2023-05-21T05:29:59;10.50;1.00
14277;DHT22;7222;57.346;12.150;2023-05-21T05:32:26;10.50;47.00
14277;DHT22;7222;57.346;12.150;2023-05-21T05:34:53;10.50;1.00
14277;DHT22;7222;57.346;12.150;2023-05-21T05:37:21;10.60;1.00
14277;DHT22;7222;57.346;12.150;2023-05-21T05:39:48;10.60;1.00
14277;DHT22;7222;57.346;12.150;2023-05-21T05:42:15;10.60;94.90
14277;DHT22;7222;57.346;12.150;2023-05-21T05:44:42;10.70;1.00
14277;DHT22;7222;57.346;12.150;2023-05-21T05:47:09;10.90;99.90
14277;DHT22;7222;57.346;12.150;2023-05-21T05:49:36;11.10;1.00
14277;DHT22;7222;57.346;12.150;2023-05-21T05:52:03;11.30;1.00
14277;DHT22;7222;57.346;12.150;2023-05-21T05:54:32;11.50;1.00
14277;DHT22;7222;57.346;12.150;2023-05-21T05:56:59;11.80;1.00
14277;DHT22;7222;57.346;12.150;2023-05-21T05:59:26;11.80;99.90
14277;DHT22;7222;57.346;12.150;2023-05-21T06:01:53;11.90;1.00
14277;DHT22;7222;57.346;12.150;2023-05-21T06:04:19;12.20;99.90
14277;DHT22;7222;57.346;12.150;2023-05-21T06:06:46;12.30;99.90
14277;DHT22;7222;57.346;12.150;2023-05-21T06:09:13;12.50;1.00
14277;DHT22;7222;57.346;12.150;2023-05-21T06:11:41;12.60;99.90
14277;DHT22;7222;57.346;12.150;2023-05-21T06:14:08;12.90;1.00
14277;DHT22;7222;57.346;12.150;2023-05-21T06:16:35;13.00;1.00
14277;DHT22;7222;57.346;12.150;2023-05-21T06:19:02;13.20;1.00
14277;DHT22;7222;57.346;12.150;2023-05-21T06:21:29;13.30;99.90
14277;DHT22;7222;57.346;12.150;2023-05-21T06:23:56;13.40;1.00
14277;DHT22;7222;57.346;12.150;2023-05-21T06:26:23;13.60;1.00
14277;DHT22;7222;57.346;12.150;2023-05-21T06:28:51;13.90;99.90
14277;DHT22;7222;57.346;12.150;2023-05-21T06:31:18;14.00;99.90
14277;DHT22;7222;57.346;12.150;2023-05-21T06:33:46;14.10;99.90
14277;DHT22;7222;57.346;12.150;2023-05-21T06:36:15;14.30;99.90
14277;DHT22;7222;57.346;12.150;2023-05-21T06:38:41;14.70;1.00
14277;DHT22;7222;57.346;12.150;2023-05-21T06:41:08;14.90;1.00
14277;DHT22;7222;57.346;12.150;2023-05-21T06:43:35;15.00;56.10
14277;DHT22;7222;57.346;12.150;2023-05-21T06:46:03;15.20;1.00
14277;DHT22;7222;57.346;12.150;2023-05-21T06:48:30;15.50;1.00
14277;DHT22;7222;57.346;12.150;2023-05-21T06:50:57;15.70;1.00
14277;DHT22;7222;57.346;12.150;2023-05-21T06:53:25;16.00;1.00
14277;DHT22;7222;57.346;12.150;2023-05-21T06:55:52;16.20;99.90
14277;DHT22;7222;57.346;12.150;2023-05-21T06:58:19;16.40;99.90
14277;DHT22;7222;57.346;12.150;2023-05-21T07:00:46;16.70;9.60
14277;DHT22;7222;57.346;12.150;2023-05-21T07:03:15;16.90;1.00
14277;DHT22;7222;57.346;12.150;2023-05-21T07:05:43;17.20;1.00
14277;DHT22;7222;57.346;12.150;2023-05-21T07:08:10;17.50;1.00
14277;DHT22;7222;57.346;12.150;2023-05-21T07:10:39;17.70;1.00
14277;DHT22;7222;57.346;12.150;2023-05-21T07:13:07;17.90;1.00
14277;DHT22;7222;57.346;12.150;2023-05-21T07:15:34;18.30;99.90
14277;DHT22;7222;57.346;12.150;2023-05-21T07:18:01;18.50;99.90
14277;DHT22;7222;57.346;12.150;2023-05-21T07:20:30;18.80;99.90
14277;DHT22;7222;57.346;12.150;2023-05-21T07:22:57;19.20;99.90
14277;DHT22;7222;57.346;12.150;2023-05-21T07:25:24;19.40;99.90
14277;DHT22;7222;57.346;12.150;2023-05-21T07:27:51;19.70;99.90
14277;DHT22;7222;57.346;12.150;2023-05-21T07:30:18;20.00;99.90
14277;DHT22;7222;57.346;12.150;2023-05-21T07:32:46;20.20;76.70
14277;DHT22;7222;57.346;12.150;2023-05-21T07:35:13;20.50;53.40
14277;DHT22;7222;57.346;12.150;2023-05-21T07:37:41;20.60;1.00
14277;DHT22;7222;57.346;12.150;2023-05-21T07:40:10;21.00;1.00
14277;DHT22;7222;57.346;12.150;2023-05-21T07:42:37;20.80;1.00
14277;DHT22;7222;57.346;12.150;2023-05-21T07:45:05;21.00;1.00
14277;DHT22;7222;57.346;12.150;2023-05-21T07:47:33;21.60;1.00
14277;DHT22;7222;57.346;12.150;2023-05-21T07:49:59;21.80;1.00
14277;DHT22;7222;57.346;12.150;2023-05-21T07:52:26;22.10;1.00
14277;DHT22;7222;57.346;12.150;2023-05-21T07:54:55;22.60;1.00
14277;DHT22;7222;57.346;12.150;2023-05-21T07:57:22;22.90;1.00
14277;DHT22;7222;57.346;12.150;2023-05-21T07:59:49;23.00;1.00
14277;DHT22;7222;57.346;12.150;2023-05-21T08:02:16;23.30;1.00
14277;DHT22;7222;57.346;12.150;2023-05-21T08:04:43;23.80;1.00
14277;DHT22;7222;57.346;12.150;2023-05-21T08:07:10;24.20;1.00
14277;DHT22;7222;57.346;12.150;2023-05-21T08:09:38;23.90;1.00
14277;DHT22;7222;57.346;12.150;2023-05-21T08:12:07;23.30;1.00
14277;DHT22;7222;57.346;12.150;2023-05-21T08:14:33;23.80;1.00
14277;DHT22;7222;57.346;12.150;2023-05-21T08:17:01;23.10;1.00
14277;DHT22;7222;57.346;12.150;2023-05-21T08:19:27;24.40;1.00
14277;DHT22;7222;57.346;12.150;2023-05-21T08:21:54;25.10;1.00
14277;DHT22;7222;57.346;12.150;2023-05-21T08:24:23;24.50;1.00
14277;DHT22;7222;57.346;12.150;2023-05-21T08:26:50;25.00;1.00
14277;DHT22;7222;57.346;12.150;2023-05-21T08:29:19;24.90;1.00
14277;DHT22;7222;57.346;12.150;2023-05-21T08:31:46;25.30;1.00
14277;DHT22;7222;57.346;12.150;2023-05-21T08:34:13;26.00;1.00
14277;DHT22;7222;57.346;12.150;2023-05-21T08:36:40;26.40;1.00
14277;DHT22;7222;57.346;12.150;2023-05-21T08:39:10;26.80;1.00
14277;DHT22;7222;57.346;12.150;2023-05-21T08:41:38;26.00;1.00
14277;DHT22;7222;57.346;12.150;2023-05-21T08:44:10;25.80;1.00
14277;DHT22;7222;57.346;12.150;2023-05-21T08:46:40;26.90;1.00
14277;DHT22;7222;57.346;12.150;2023-05-21T08:49:11;27.50;1.00
14277;DHT22;7222;57.346;12.150;2023-05-21T08:51:38;28.00;1.00
14277;DHT22;7222;57.346;12.150;2023-05-21T08:54:06;28.20;1.00
14277;DHT22;7222;57.346;12.150;2023-05-21T08:56:33;28.50;1.00
14277;DHT22;7222;57.346;12.150;2023-05-21T08:59:01;27.50;99.90
14277;DHT22;7222;57.346;12.150;2023-05-21T09:01:28;27.20;1.00
14277;DHT22;7222;57.346;12.150;2023-05-21T09:04:00;27.10;1.00
14277;DHT22;7222;57.346;12.150;2023-05-21T09:06:28;26.50;99.90
14277;DHT22;7222;57.346;12.150;2023-05-21T09:09:01;27.90;1.00
14277;DHT22;7222;57.346;12.150;2023-05-21T09:11:30;27.80;99.90
14277;DHT22;7222;57.346;12.150;2023-05-21T09:13:58;28.50;1.00
14277;DHT22;7222;57.346;12.150;2023-05-21T09:16:25;29.50;1.00
14277;DHT22;7222;57.346;12.150;2023-05-21T09:18:52;30.20;1.00
14277;DHT22;7222;57.346;12.150;2023-05-21T09:21:24;30.70;1.00
14277;DHT22;7222;57.346;12.150;2023-05-21T09:23:55;30.40;1.00
14277;DHT22;7222;57.346;12.150;2023-05-21T09:26:22;31.10;99.90
14277;DHT22;7222;57.346;12.150;2023-05-21T09:28:50;31.10;1.00
14277;DHT22;7222;57.346;12.150;2023-05-21T09:31:17;30.70;1.00
14277;DHT22;7222;57.346;12.150;2023-05-21T09:33:47;31.80;99.90
14277;DHT22;7222;57.346;12.150;2023-05-21T09:36:16;32.10;99.90
14277;DHT22;7222;57.346;12.150;2023-05-21T09:38:46;31.70;99.90
14277;DHT22;7222;57.346;12.150;2023-05-21T09:41:14;31.90;99.90
14277;DHT22;7222;57.346;12.150;2023-05-21T09:43:41;31.10;99.90
14277;DHT22;7222;57.346;12.150;2023-05-21T09:46:09;31.90;99.90
14277;DHT22;7222;57.346;12.150;2023-05-21T09:48:36;32.40;99.90
14277;DHT22;7222;57.346;12.150;2023-05-21T09:51:12;32.90;99.90
14277;DHT22;7222;57.346;12.150;2023-05-21T09:53:48;33.00;99.90
14277;DHT22;7222;57.346;12.150;2023-05-21T09:56:17;32.80;99.90
14277;DHT22;7222;57.346;12.150;2023-05-21T09:58:45;33.20;99.90
14277;DHT22;7222;57.346;12.150;2023-05-21T10:01:12;31.70;99.90
14277;DHT22;7222;57.346;12.150;2023-05-21T10:03:40;28.80;99.90
14277;DHT22;7222;57.346;12.150;2023-05-21T10:06:08;31.30;99.90
14277;DHT22;7222;57.346;12.150;2023-05-21T10:08:42;30.60;99.90
14277;DHT22;7222;57.346;12.150;2023-05-21T10:11:12;32.60;99.90
14277;DHT22;7222;57.346;12.150;2023-05-21T10:13:44;33.70;99.90
14277;DHT22;7222;57.346;12.150;2023-05-21T10:16:14;32.90;99.90
14277;DHT22;7222;57.346;12.150;2023-05-21T10:18:43;32.90;99.90
14277;DHT22;7222;57.346;12.150;2023-05-21T10:21:11;33.00;99.90
14277;DHT22;7222;57.346;12.150;2023-05-21T10:23:38;34.10;99.90
14277;DHT22;7222;57.346;12.150;2023-05-21T10:26:07;34.40;99.90
14277;DHT22;7222;57.346;12.150;2023-05-21T10:28:36;32.40;99.90
14277;DHT22;7222;57.346;12.150;2023-05-21T10:31:03;33.60;99.90
14277;DHT22;7222;57.346;12.150;2023-05-21T10:33:30;34.40;99.90
14277;DHT22;7222;57.346;12.150;2023-05-21T10:35:58;34.70;99.90
14277;DHT22;7222;57.346;12.150;2023-05-21T10:38:26;34.90;99.90
14277;DHT22;7222;57.346;12.150;2023-05-21T10:40:54;33.70;99.90
14277;DHT22;7222;57.346;12.150;2023-05-21T10:43:47;34.30;99.90
14277;DHT22;7222;57.346;12.150;2023-05-21T10:49:18;35.60;99.90
14277;DHT22;7222;57.346;12.150;2023-05-21T10:51:54;30.90;99.90
14277;DHT22;7222;57.346;12.150;2023-05-21T10:54:49;32.60;99.90
14277;DHT22;7222;57.346;12.150;2023-05-21T11:00:12;31.40;99.90
14277;DHT22;7222;57.346;12.150;2023-05-21T11:02:41;33.40;99.90
14277;DHT22;7222;57.346;12.150;2023-05-21T11:05:10;32.20;99.90
14277;DHT22;7222;57.346;12.150;2023-05-21T11:07:50;33.10;99.90
14277;DHT22;7222;57.346;12.150;2023-05-21T11:10:34;34.70;99.90
14277;DHT22;7222;57.346;12.150;2023-05-21T11:13:11;33.30;99.90
14277;DHT22;7222;57.346;12.150;2023-05-21T11:16:12;35.40;99.90
14277;DHT22;7222;57.346;12.150;2023-05-21T11:19:00;35.90;99.90
14277;DHT22;7222;57.346;12.150;2023-05-21T11:21:29;36.60;99.90
14277;DHT22;7222;57.346;12.150;2023-05-21T11:23:59;33.60;99.90
14277;DHT22;7222;57.346;12.150;2023-05-21T11:26:28;31.20;99.90
14277;DHT22;7222;57.346;12.150;2023-05-21T11:29:09;31.90;99.90
14277;DHT22;7222;57.346;12.150;2023-05-21T11:31:43;30.40;99.90
14277;DHT22;7222;57.346;12.150;2023-05-21T11:34:11;30.90;99.90
14277;DHT22;7222;57.346;12.150;2023-05-21T11:36:39;34.50;99.90
14277;DHT22;7222;57.346;12.150;2023-05-21T11:39:10;35.90;99.90
14277;DHT22;7222;57.346;12.150;2023-05-21T11:41:56;36.20;99.90
14277;DHT22;7222;57.346;12.150;2023-05-21T11:44:37;36.10;99.90
14277;DHT22;7222;57.346;12.150;2023-05-21T11:47:07;37.30;99.90
14277;DHT22;7222;57.346;12.150;2023-05-21T11:49:35;34.30;99.90
14277;DHT22;7222;57.346;12.150;2023-05-21T11:52:03;36.60;99.90
14277;DHT22;7222;57.346;12.150;2023-05-21T11:54:31;37.10;99.90
14277;DHT22;7222;57.346;12.150;2023-05-21T11:57:02;35.90;99.90
14277;DHT22;7222;57.346;12.150;2023-05-21T11:59:31;37.70;99.90
14277;DHT22;7222;57.346;12.150;2023-05-21T12:01:59;37.60;99.90
14277;DHT22;7222;57.346;12.150;2023-05-21T12:04:30;38.50;99.90
14277;DHT22;7222;57.346;12.150;2023-05-21T12:06:57;38.50;99.90
14277;DHT22;7222;57.346;12.150;2023-05-21T12:09:24;39.00;99.90
14277;DHT22;7222;57.346;12.150;2023-05-21T12:11:51;39.10;99.90
14277;DHT22;7222;57.346;12.150;2023-05-21T12:14:19;39.40;99.90
14277;DHT22;7222;57.346;12.150;2023-05-21T12:16:47;39.20;99.90
14277;DHT22;7222;57.346;12.150;2023-05-21T12:19:16;39.10;99.90
14277;DHT22;7222;57.346;12.150;2023-05-21T12:21:45;38.10;99.90
14277;DHT22;7222;57.346;12.150;2023-05-21T12:24:11;38.50;99.90
14277;DHT22;7222;57.346;12.150;2023-05-21T12:26:38;37.60;99.90
14277;DHT22;7222;57.346;12.150;2023-05-21T12:29:06;35.90;99.90
14277;DHT22;7222;57.346;12.150;2023-05-21T12:31:46;37.10;99.90
14277;DHT22;7222;57.346;12.150;2023-05-21T12:34:13;35.90;99.90
14277;DHT22;7222;57.346;12.150;2023-05-21T12:36:44;35.90;99.90
14277;DHT22;7222;57.346;12.150;2023-05-21T12:39:12;37.70;99.90
14277;DHT22;7222;57.346;12.150;2023-05-21T12:41:39;38.90;99.90
14277;DHT22;7222;57.346;12.150;2023-05-21T12:44:06;39.40;99.90
14277;DHT22;7222;57.346;12.150;2023-05-21T12:46:34;36.20;99.90
14277;DHT22;7222;57.346;12.150;2023-05-21T12:49:01;36.70;99.90
14277;DHT22;7222;57.346;12.150;2023-05-21T12:51:36;32.70;99.90
14277;DHT22;7222;57.346;12.150;2023-05-21T12:54:12;31.60;99.90
14277;DHT22;7222;57.346;12.150;2023-05-21T12:56:45;32.40;99.90
14277;DHT22;7222;57.346;12.150;2023-05-21T12:59:12;35.60;99.90
14277;DHT22;7222;57.346;12.150;2023-05-21T13:01:40;36.00;99.90
14277;DHT22;7222;57.346;12.150;2023-05-21T13:04:07;37.30;99.90
14277;DHT22;7222;57.346;12.150;2023-05-21T13:06:43;37.10;99.90
14277;DHT22;7222;57.346;12.150;2023-05-21T13:09:12;36.70;99.90
14277;DHT22;7222;57.346;12.150;2023-05-21T13:11:39;37.70;99.90
14277;DHT22;7222;57.346;12.150;2023-05-21T13:14:06;33.50;99.90
14277;DHT22;7222;57.346;12.150;2023-05-21T13:16:33;34.50;99.90
14277;DHT22;7222;57.346;12.150;2023-05-21T13:19:00;32.20;99.90
14277;DHT22;7222;57.346;12.150;2023-05-21T13:21:27;32.60;99.90
14277;DHT22;7222;57.346;12.150;2023-05-21T13:23:54;35.10;99.90
14277;DHT22;7222;57.346;12.150;2023-05-21T13:26:22;34.60;99.90
14277;DHT22;7222;57.346;12.150;2023-05-21T13:28:49;34.00;99.90
14277;DHT22;7222;57.346;12.150;2023-05-21T13:31:16;32.30;99.90
14277;DHT22;7222;57.346;12.150;2023-05-21T13:33:43;32.60;99.90
14277;DHT22;7222;57.346;12.150;2023-05-21T13:36:10;33.30;99.90
14277;DHT22;7222;57.346;12.150;2023-05-21T13:38:37;33.10;99.90
14277;DHT22;7222;57.346;12.150;2023-05-21T13:41:04;34.70;99.90
14277;DHT22;7222;57.346;12.150;2023-05-21T13:43:32;35.20;99.90
14277;DHT22;7222;57.346;12.150;2023-05-21T13:45:59;33.50;99.90
14277;DHT22;7222;57.346;12.150;2023-05-21T13:48:26;33.50;99.90
14277;DHT22;7222;57.346;12.150;2023-05-21T13:50:53;34.30;99.90
14277;DHT22;7222;57.346;12.150;2023-05-21T13:53:20;31.40;99.90
14277;DHT22;7222;57.346;12.150;2023-05-21T13:55:47;30.40;99.90
14277;DHT22;7222;57.346;12.150;2023-05-21T13:58:15;33.20;99.90
14277;DHT22;7222;57.346;12.150;2023-05-21T14:00:43;32.60;99.90
14277;DHT22;7222;57.346;12.150;2023-05-21T14:03:10;30.60;99.90
14277;DHT22;7222;57.346;12.150;2023-05-21T14:05:37;32.30;99.90
14277;DHT22;7222;57.346;12.150;2023-05-21T14:08:04;31.70;99.90
14277;DHT22;7222;57.346;12.150;2023-05-21T14:10:32;32.70;99.90
14277;DHT22;7222;57.346;12.150;2023-05-21T14:12:59;33.70;99.90
14277;DHT22;7222;57.346;12.150;2023-05-21T14:15:26;31.00;99.90
14277;DHT22;7222;57.346;12.150;2023-05-21T14:17:54;30.90;99.90
14277;DHT22;7222;57.346;12.150;2023-05-21T14:20:21;30.10;99.90
14277;DHT22;7222;57.346;12.150;2023-05-21T14:22:48;30.20;99.90
14277;DHT22;7222;57.346;12.150;2023-05-21T14:25:15;33.10;99.90
14277;DHT22;7222;57.346;12.150;2023-05-21T14:27:42;33.30;99.90
14277;DHT22;7222;57.346;12.150;2023-05-21T14:30:10;32.20;99.90
14277;DHT22;7222;57.346;12.150;2023-05-21T14:32:37;33.00;99.90
14277;DHT22;7222;57.346;12.150;2023-05-21T14:35:06;32.00;99.90
14277;DHT22;7222;57.346;12.150;2023-05-21T14:37:33;32.60;99.90
14277;DHT22;7222;57.346;12.150;2023-05-21T14:40:00;32.80;99.90
14277;DHT22;7222;57.346;12.150;2023-05-21T14:42:26;32.10;99.90
14277;DHT22;7222;57.346;12.150;2023-05-21T14:44:53;31.20;99.90
14277;DHT22;7222;57.346;12.150;2023-05-21T14:47:20;30.00;99.90
14277;DHT22;7222;57.346;12.150;2023-05-21T14:49:47;30.60;99.90
14277;DHT22;7222;57.346;12.150;2023-05-21T14:52:15;31.90;99.90
14277;DHT22;7222;57.346;12.150;2023-05-21T14:54:42;31.30;99.90
14277;DHT22;7222;57.346;12.150;2023-05-21T14:57:09;28.80;99.90
14277;DHT22;7222;57.346;12.150;2023-05-21T14:59:36;28.30;99.90
14277;DHT22;7222;57.346;12.150;2023-05-21T15:02:03;29.20;99.90
14277;DHT22;7222;57.346;12.150;2023-05-21T15:04:30;28.00;99.90
14277;DHT22;7222;57.346;12.150;2023-05-21T15:06:57;29.80;99.90
14277;DHT22;7222;57.346;12.150;2023-05-21T15:09:25;29.10;99.90
14277;DHT22;7222;57.346;12.150;2023-05-21T15:11:52;29.10;99.90
14277;DHT22;7222;57.346;12.150;2023-05-21T15:14:19;28.40;99.90
14277;DHT22;7222;57.346;12.150;2023-05-21T15:16:46;30.70;99.90
14277;DHT22;7222;57.346;12.150;2023-05-21T15:19:13;29.20;99.90
14277;DHT22;7222;57.346;12.150;2023-05-21T15:21:40;28.60;99.90
14277;DHT22;7222;57.346;12.150;2023-05-21T15:24:07;28.40;99.90
14277;DHT22;7222;57.346;12.150;2023-05-21T15:26:35;29.00;99.90
14277;DHT22;7222;57.346;12.150;2023-05-21T15:29:02;29.40;99.90
14277;DHT22;7222;57.346;12.150;2023-05-21T15:31:30;27.80;99.90
14277;DHT22;7222;57.346;12.150;2023-05-21T15:33:57;27.80;99.90
14277;DHT22;7222;57.346;12.150;2023-05-21T15:36:24;29.00;99.90
14277;DHT22;7222;57.346;12.150;2023-05-21T15:38:52;28.80;99.90
14277;DHT22;7222;57.346;12.150;2023-05-21T15:41:19;27.90;99.90
14277;DHT22;7222;57.346;12.150;2023-05-21T15:43:48;27.30;99.90
14277;DHT22;7222;57.346;12.150;2023-05-21T15:46:14;27.50;99.90
14277;DHT22;7222;57.346;12.150;2023-05-21T15:48:41;27.80;99.90
14277;DHT22;7222;57.346;12.150;2023-05-21T15:51:08;27.50;99.90
14277;DHT22;7222;57.346;12.150;2023-05-21T15:53:35;29.20;99.90